Time;durP1;ratioP1;P1;durP2;ratioP2;P2;SDS_P1;SDS_P2;PMS_P1;PMS_P2;Temp;Humidity;BMP_temperature;BMP_pressure;BME280_temperature;BME280_humidity;BME280_pressure;Samples;Min_cycle;Max_cycle;Signal;HPM_P1;HPM_P2
2023/09/11 00:00:19;;;;;;;33.50;30.80;;;;;;;;;;5117371;28;20866;-83
2023/09/11 00:02:46;;;;;;;29.53;27.53;;;;;;;;;;5117571;28;20409;-82
2023/09/11 00:05:13;;;;;;;31.37;28.67;;;;;;;;;;5117229;28;20431;-83
2023/09/11 00:07:40;;;;;;;29.90;27.90;;;;;;;;;;5116565;28;20440;-82
2023/09/11 00:10:07;;;;;;;31.67;29.33;;;;;;;;;;5116790;28;20466;-83
2023/09/11 00:12:34;;;;;;;32.03;29.50;;;;;;;;;;5117546;28;20439;-83
2023/09/11 00:15:02;;;;;;;32.87;29.33;;;;;;;;;;5117133;28;20891;-82
2023/09/11 00:17:30;;;;;;;32.00;29.80;;;;;;;;;;5116907;28;20452;-82
2023/09/11 00:19:57;;;;;;;30.93;28.53;;;;;;;;;;5117168;28;20947;-83
2023/09/11 00:22:24;;;;;;;32.73;30.33;;;;;;;;;;5117007;28;20451;-82
2023/09/11 00:24:51;;;;;;;32.10;29.77;;;;;;;;;;5116770;28;20415;-82
2023/09/11 00:27:18;;;;;;;32.67;29.43;;;;;;;;;;5116176;28;20415;-81
2023/09/11 00:29:45;;;;;;;31.70;29.40;;;;;;;;;;5116496;28;20460;-82
2023/09/11 00:32:12;;;;;;;32.43;29.70;;;;;;;;;;5116647;28;20785;-83
2023/09/11 00:34:41;;;;;;;32.77;30.43;;;;;;;;;;5117389;28;20425;-82
2023/09/11 00:37:08;;;;;;;32.77;30.20;;;;;;;;;;5116581;28;20426;-83
2023/09/11 00:39:35;;;;;;;32.50;30.13;;;;;;;;;;5116660;28;20435;-83
2023/09/11 00:42:02;;;;;;;32.63;30.30;;;;;;;;;;5116300;28;20419;-82
2023/09/11 00:44:29;;;;;;;33.13;30.33;;;;;;;;;;5116524;28;20440;-82
2023/09/11 00:46:57;;;;;;;32.57;30.00;;;;;;;;;;5115980;28;20459;-83
2023/09/11 00:49:24;;;;;;;32.97;29.97;;;;;;;;;;5116561;28;20476;-82
2023/09/11 00:51:52;;;;;;;34.53;31.80;;;;;;;;;;5116107;28;21072;-82
2023/09/11 00:54:20;;;;;;;32.53;30.00;;;;;;;;;;5116362;28;20448;-82
2023/09/11 00:56:47;;;;;;;32.47;30.17;;;;;;;;;;5116386;28;20451;-82
2023/09/11 00:59:15;;;;;;;32.90;30.43;;;;;;;;;;5119437;28;20461;-83
2023/09/11 01:01:43;;;;;;;34.67;31.93;;;;;;;;;;5120271;28;20560;-82
2023/09/11 01:04:10;;;;;;;33.17;30.53;;;;;;;;;;5120197;28;20838;-82
2023/09/11 01:06:37;;;;;;;34.23;31.00;;;;;;;;;;5119761;28;20454;-83
2023/09/11 01:09:06;;;;;;;36.17;33.47;;;;;;;;;;5120604;28;20483;-83
2023/09/11 01:11:33;;;;;;;32.03;29.90;;;;;;;;;;5121048;28;20446;-80
2023/09/11 01:14:00;;;;;;;32.00;29.80;;;;;;;;;;5121152;28;20422;-81
2023/09/11 01:16:28;;;;;;;33.80;30.93;;;;;;;;;;5120610;28;20447;-80
2023/09/11 01:18:59;;;;;;;34.53;31.70;;;;;;;;;;5121052;28;20446;-80
2023/09/11 01:21:39;;;;;;;34.87;31.67;;;;;;;;;;5121062;28;20479;-81
2023/09/11 01:24:17;;;;;;;33.63;30.93;;;;;;;;;;5120601;28;20424;-81
2023/09/11 01:26:59;;;;;;;34.10;31.40;;;;;;;;;;5120404;28;20447;-80
2023/09/11 01:29:28;;;;;;;33.60;31.10;;;;;;;;;;5120469;28;20437;-81
2023/09/11 01:31:56;;;;;;;33.20;30.47;;;;;;;;;;5121133;28;20454;-80
2023/09/11 01:34:23;;;;;;;35.10;32.13;;;;;;;;;;5120393;28;20432;-80
2023/09/11 01:36:50;;;;;;;34.73;31.80;;;;;;;;;;5119919;28;20913;-80
2023/09/11 01:39:17;;;;;;;35.53;32.17;;;;;;;;;;5120014;28;20456;-81
2023/09/11 01:41:45;;;;;;;33.40;30.70;;;;;;;;;;5119957;28;20889;-80
2023/09/11 01:44:16;;;;;;;33.67;31.10;;;;;;;;;;5120842;28;20439;-81
2023/09/11 01:46:44;;;;;;;36.40;33.37;;;;;;;;;;5120051;28;20473;-81
2023/09/11 01:49:12;;;;;;;35.33;32.70;;;;;;;;;;5120507;28;20442;-80
2023/09/11 01:51:40;;;;;;;35.40;32.87;;;;;;;;;;5120254;28;20455;-80
2023/09/11 01:54:07;;;;;;;34.73;31.93;;;;;;;;;;5120192;28;20471;-80
2023/09/11 01:56:34;;;;;;;36.70;33.70;;;;;;;;;;5116897;28;20463;-80
2023/09/11 01:59:01;;;;;;;34.10;31.67;;;;;;;;;;5099771;28;21003;-81
2023/09/11 02:01:28;;;;;;;33.90;31.30;;;;;;;;;;5099834;28;20462;-80
2023/09/11 02:03:56;;;;;;;35.20;32.20;;;;;;;;;;5099986;28;20812;-81
2023/09/11 02:06:23;;;;;;;34.53;31.60;;;;;;;;;;5101423;28;20449;-80
2023/09/11 02:08:50;;;;;;;34.60;31.93;;;;;;;;;;5119885;28;20439;-81
2023/09/11 02:11:18;;;;;;;34.00;31.47;;;;;;;;;;5118998;28;20444;-80
2023/09/11 02:13:45;;;;;;;32.50;30.10;;;;;;;;;;5119919;28;20415;-80
2023/09/11 02:16:12;;;;;;;34.47;32.10;;;;;;;;;;5120262;28;20497;-82
2023/09/11 02:18:39;;;;;;;34.67;31.33;;;;;;;;;;5120207;28;20901;-81
2023/09/11 02:21:08;;;;;;;32.97;30.53;;;;;;;;;;5119669;28;20447;-80
2023/09/11 02:23:35;;;;;;;33.53;31.30;;;;;;;;;;5120066;28;20456;-80
2023/09/11 02:26:02;;;;;;;31.80;29.70;;;;;;;;;;5120058;28;20443;-82
2023/09/11 02:28:29;;;;;;;33.23;30.60;;;;;;;;;;5119308;28;20448;-79
2023/09/11 02:30:57;;;;;;;34.17;30.87;;;;;;;;;;5119463;28;20454;-80
2023/09/11 02:33:24;;;;;;;35.20;32.60;;;;;;;;;;5118992;28;20467;-80
2023/09/11 02:35:53;;;;;;;33.70;31.10;;;;;;;;;;5118919;28;20441;-80
2023/09/11 02:38:22;;;;;;;33.73;31.13;;;;;;;;;;5118955;28;20436;-80
2023/09/11 02:40:49;;;;;;;37.23;33.57;;;;;;;;;;5119406;28;20601;-81
2023/09/11 02:43:16;;;;;;;34.57;31.17;;;;;;;;;;5119539;28;20430;-81
2023/09/11 02:45:44;;;;;;;34.43;31.93;;;;;;;;;;5119849;28;20448;-81
2023/09/11 02:48:11;;;;;;;34.33;31.03;;;;;;;;;;5118343;28;20947;-81
2023/09/11 02:50:39;;;;;;;33.57;31.00;;;;;;;;;;5118988;28;20472;-80
2023/09/11 02:53:08;;;;;;;33.50;31.07;;;;;;;;;;5119153;28;20422;-80
2023/09/11 02:55:37;;;;;;;34.07;31.60;;;;;;;;;;5119121;28;20443;-80
2023/09/11 02:58:04;;;;;;;35.77;32.33;;;;;;;;;;5118287;28;20497;-80
2023/09/11 03:00:32;;;;;;;33.73;30.73;;;;;;;;;;5118340;28;20966;-80
2023/09/11 03:02:59;;;;;;;33.43;31.03;;;;;;;;;;5118857;28;20501;-80
2023/09/11 03:05:26;;;;;;;32.10;29.70;;;;;;;;;;5119031;28;20440;-81
2023/09/11 03:07:53;;;;;;;35.00;32.40;;;;;;;;;;5118650;28;20914;-80
2023/09/11 03:10:20;;;;;;;35.93;33.03;;;;;;;;;;5118900;28;20453;-80
2023/09/11 03:12:48;;;;;;;36.77;33.77;;;;;;;;;;5118157;28;20974;-81
2023/09/11 03:15:15;;;;;;;35.00;32.40;;;;;;;;;;5118627;28;20462;-80
2023/09/11 03:17:42;;;;;;;36.47;33.67;;;;;;;;;;5118111;28;20839;-81
2023/09/11 03:20:10;;;;;;;35.03;32.37;;;;;;;;;;5118835;28;20496;-80
2023/09/11 03:22:37;;;;;;;35.30;32.67;;;;;;;;;;5117398;28;20487;-80
2023/09/11 03:25:05;;;;;;;34.87;32.37;;;;;;;;;;5118205;28;20434;-81
2023/09/11 03:27:32;;;;;;;34.70;32.07;;;;;;;;;;5118182;28;20531;-81
2023/09/11 03:30:00;;;;;;;36.27;33.33;;;;;;;;;;5118492;28;20463;-80
2023/09/11 03:32:27;;;;;;;34.67;31.80;;;;;;;;;;5118771;28;20447;-81
2023/09/11 03:34:54;;;;;;;34.33;31.80;;;;;;;;;;5118334;28;20455;-81
2023/09/11 03:37:21;;;;;;;35.47;32.87;;;;;;;;;;5117809;28;20440;-81
2023/09/11 03:39:49;;;;;;;35.80;32.30;;;;;;;;;;5118143;28;20464;-80
2023/09/11 03:42:16;;;;;;;36.30;33.27;;;;;;;;;;5118512;28;20483;-81
2023/09/11 03:44:43;;;;;;;37.53;34.37;;;;;;;;;;5118662;28;20426;-81
2023/09/11 03:47:11;;;;;;;38.53;35.30;;;;;;;;;;5117286;28;20419;-81
2023/09/11 03:49:39;;;;;;;35.83;32.33;;;;;;;;;;5118694;28;20465;-80
2023/09/11 03:52:06;;;;;;;38.10;34.80;;;;;;;;;;5118560;28;20487;-80
2023/09/11 03:54:33;;;;;;;35.70;32.90;;;;;;;;;;5118149;28;20478;-81
2023/09/11 03:57:00;;;;;;;37.93;34.83;;;;;;;;;;5117606;28;20440;-81
2023/09/11 03:59:30;;;;;;;37.23;34.20;;;;;;;;;;5118304;28;20484;-80
2023/09/11 04:01:57;;;;;;;35.77;32.73;;;;;;;;;;5117895;28;20467;-80
2023/09/11 04:04:25;;;;;;;35.53;32.70;;;;;;;;;;5117673;28;20426;-81
2023/09/11 04:06:52;;;;;;;34.90;32.10;;;;;;;;;;5117015;28;20426;-80
2023/09/11 04:09:20;;;;;;;36.33;33.30;;;;;;;;;;5118440;28;20464;-80
2023/09/11 04:11:47;;;;;;;34.60;31.97;;;;;;;;;;5118227;28;20425;-81
2023/09/11 04:14:14;;;;;;;35.23;32.50;;;;;;;;;;5117852;28;20451;-80
2023/09/11 04:16:41;;;;;;;34.43;31.33;;;;;;;;;;5117407;28;20440;-81
2023/09/11 04:19:08;;;;;;;34.67;31.80;;;;;;;;;;5118080;28;20471;-80
2023/09/11 04:21:37;;;;;;;33.87;31.17;;;;;;;;;;5117588;28;21284;-80
2023/09/11 04:24:06;;;;;;;33.83;30.87;;;;;;;;;;5118220;28;20443;-80
2023/09/11 04:26:33;;;;;;;35.07;32.17;;;;;;;;;;5117413;28;20455;-81
2023/09/11 04:29:01;;;;;;;34.07;31.23;;;;;;;;;;5117594;28;20464;-81
2023/09/11 04:31:28;;;;;;;33.90;31.13;;;;;;;;;;5117648;28;20432;-80
2023/09/11 04:33:55;;;;;;;33.73;31.23;;;;;;;;;;5120066;28;20452;-80
2023/09/11 04:36:22;;;;;;;36.00;32.70;;;;;;;;;;5121198;28;20459;-81
2023/09/11 04:38:50;;;;;;;35.27;32.47;;;;;;;;;;5120927;28;20467;-80
2023/09/11 04:41:17;;;;;;;35.63;32.60;;;;;;;;;;5121864;28;20465;-81
2023/09/11 04:43:44;;;;;;;37.73;34.70;;;;;;;;;;5121659;28;20928;-81
2023/09/11 04:46:12;;;;;;;36.53;33.70;;;;;;;;;;5121350;28;20448;-82
2023/09/11 04:48:39;;;;;;;34.60;31.70;;;;;;;;;;5121816;28;20436;-81
2023/09/11 04:51:06;;;;;;;35.07;32.07;;;;;;;;;;5121635;28;20444;-83
2023/09/11 04:53:33;;;;;;;35.30;32.50;;;;;;;;;;5120948;28;20478;-82
2023/09/11 04:56:01;;;;;;;34.63;31.93;;;;;;;;;;5120946;28;20419;-83
2023/09/11 04:58:28;;;;;;;34.70;31.93;;;;;;;;;;5119783;28;20462;-83
2023/09/11 05:00:55;;;;;;;36.77;33.67;;;;;;;;;;5119766;28;20468;-82
2023/09/11 05:03:22;;;;;;;38.40;35.30;;;;;;;;;;5120247;28;20447;-82
2023/09/11 05:05:49;;;;;;;34.80;32.00;;;;;;;;;;5120375;28;20930;-83
2023/09/11 05:08:16;;;;;;;36.10;33.07;;;;;;;;;;5119575;28;20426;-83
2023/09/11 05:10:44;;;;;;;36.10;32.80;;;;;;;;;;5120440;28;20471;-82
2023/09/11 05:13:13;;;;;;;35.00;32.03;;;;;;;;;;5120364;28;20448;-84
2023/09/11 05:15:40;;;;;;;35.83;32.87;;;;;;;;;;5120063;28;20440;-81
2023/09/11 05:18:07;;;;;;;35.70;32.83;;;;;;;;;;5120237;28;20444;-82
2023/09/11 05:20:34;;;;;;;35.77;32.47;;;;;;;;;;5119932;28;20979;-82
2023/09/11 05:23:01;;;;;;;36.40;33.40;;;;;;;;;;5120918;28;20461;-82
2023/09/11 05:25:28;;;;;;;36.93;33.50;;;;;;;;;;5119987;28;20422;-82
2023/09/11 05:27:55;;;;;;;34.20;31.70;;;;;;;;;;5119556;28;20451;-81
2023/09/11 05:30:24;;;;;;;36.53;33.00;;;;;;;;;;5121245;28;20489;-82
2023/09/11 05:32:52;;;;;;;36.40;33.20;;;;;;;;;;5121212;28;20455;-81
2023/09/11 05:35:19;;;;;;;33.97;31.03;;;;;;;;;;5121194;28;20456;-81
2023/09/11 05:37:47;;;;;;;35.53;32.53;;;;;;;;;;5119436;28;20459;-81
2023/09/11 05:40:15;;;;;;;34.47;31.77;;;;;;;;;;5120873;28;20464;-81
2023/09/11 05:42:42;;;;;;;34.60;32.00;;;;;;;;;;5121004;28;20466;-81
2023/09/11 05:45:10;;;;;;;34.97;32.30;;;;;;;;;;5119213;28;20806;-82
2023/09/11 05:47:39;;;;;;;37.33;34.00;;;;;;;;;;5119147;28;20467;-82
2023/09/11 05:50:07;;;;;;;35.67;32.70;;;;;;;;;;5120809;28;20479;-82
2023/09/11 05:52:34;;;;;;;36.10;32.93;;;;;;;;;;5118965;28;20475;-82
2023/09/11 05:55:02;;;;;;;35.23;32.00;;;;;;;;;;5119980;28;20490;-82
2023/09/11 05:57:29;;;;;;;34.23;31.13;;;;;;;;;;5119356;28;20439;-82
2023/09/11 05:59:56;;;;;;;33.63;30.77;;;;;;;;;;5120164;28;20442;-81
2023/09/11 06:02:23;;;;;;;36.40;33.30;;;;;;;;;;5119073;28;20979;-82
2023/09/11 06:04:52;;;;;;;35.93;32.93;;;;;;;;;;5119531;28;20439;-82
2023/09/11 06:07:19;;;;;;;32.97;30.00;;;;;;;;;;5118690;28;20438;-81
2023/09/11 06:09:46;;;;;;;34.37;31.60;;;;;;;;;;5119110;28;20767;-82
2023/09/11 06:12:13;;;;;;;32.77;30.37;;;;;;;;;;5119530;28;20486;-81
2023/09/11 06:14:40;;;;;;;36.57;31.37;;;;;;;;;;5119011;28;20448;-81
2023/09/11 06:17:07;;;;;;;33.03;30.13;;;;;;;;;;5119054;28;20451;-81
2023/09/11 06:19:34;;;;;;;33.93;30.80;;;;;;;;;;5120117;28;20470;-82
2023/09/11 06:22:03;;;;;;;33.90;30.97;;;;;;;;;;5107791;28;20992;-82
2023/09/11 06:24:30;;;;;;;32.97;29.77;;;;;;;;;;5107198;28;20464;-81
2023/09/11 06:27:04;;;;;;;34.20;30.80;;;;;;;;;;5119212;28;20426;-81
2023/09/11 06:29:31;;;;;;;31.80;28.70;;;;;;;;;;5119866;28;20498;-81
2023/09/11 06:31:58;;;;;;;31.70;29.13;;;;;;;;;;5120155;28;20443;-82
2023/09/11 06:34:27;;;;;;;32.70;29.53;;;;;;;;;;5117966;28;20493;-82
2023/09/11 06:36:54;;;;;;;32.03;29.07;;;;;;;;;;5106921;28;20456;-82
2023/09/11 06:39:23;;;;;;;30.67;27.70;;;;;;;;;;5119161;28;20459;-81
2023/09/11 06:41:50;;;;;;;29.93;27.07;;;;;;;;;;5103967;28;20488;-82
2023/09/11 06:44:17;;;;;;;32.87;30.03;;;;;;;;;;5099518;28;20412;-80
2023/09/11 06:46:44;;;;;;;31.53;28.43;;;;;;;;;;5099629;28;20423;-81
2023/09/11 06:49:11;;;;;;;29.47;26.87;;;;;;;;;;5099172;28;20530;-81
2023/09/11 06:51:38;;;;;;;27.70;25.73;;;;;;;;;;5099288;28;20419;-82
2023/09/11 06:54:09;;;;;;;28.57;25.67;;;;;;;;;;5098463;28;20449;-81
2023/09/11 06:56:37;;;;;;;26.63;24.60;;;;;;;;;;5098892;28;20408;-82
2023/09/11 06:59:04;;;;;;;29.47;26.40;;;;;;;;;;5099673;28;20465;-82
2023/09/11 07:01:36;;;;;;;30.93;27.27;;;;;;;;;;5103750;28;20434;-82
2023/09/11 07:04:03;;;;;;;27.37;24.73;;;;;;;;;;5115942;28;20474;-81
2023/09/11 07:06:30;;;;;;;28.83;25.80;;;;;;;;;;5099988;28;20499;-79
2023/09/11 07:08:57;;;;;;;29.00;26.30;;;;;;;;;;5102447;28;20444;-82
2023/09/11 07:11:24;;;;;;;27.20;24.83;;;;;;;;;;5102396;28;20804;-83
2023/09/11 07:13:54;;;;;;;27.07;24.67;;;;;;;;;;5099298;28;20452;-87
2023/09/11 07:16:22;;;;;;;29.30;25.70;;;;;;;;;;5096314;28;20781;-86
2023/09/11 07:18:49;;;;;;;27.07;24.30;;;;;;;;;;5098063;28;20438;-83
2023/09/11 07:21:16;;;;;;;27.50;24.83;;;;;;;;;;5113671;28;20498;-84
2023/09/11 07:23:43;;;;;;;29.57;25.70;;;;;;;;;;5119768;28;20461;-84
2023/09/11 07:26:11;;;;;;;28.70;26.00;;;;;;;;;;5119835;28;20419;-85
2023/09/11 07:28:53;;;;;;;27.60;25.33;;;;;;;;;;5121942;28;20475;-82
2023/09/11 07:31:21;;;;;;;30.10;27.03;;;;;;;;;;5110260;28;20420;-83
2023/09/11 07:33:48;;;;;;;27.30;24.90;;;;;;;;;;5108243;28;20426;-82
2023/09/11 07:36:15;;;;;;;27.10;24.60;;;;;;;;;;5107249;28;20456;-82
2023/09/11 07:38:44;;;;;;;28.20;25.40;;;;;;;;;;5117963;28;21379;-83
2023/09/11 07:41:12;;;;;;;28.00;25.67;;;;;;;;;;5116662;28;20451;-82
2023/09/11 07:43:39;;;;;;;30.43;24.63;;;;;;;;;;5118187;28;20458;-82
2023/09/11 07:46:06;;;;;;;29.17;25.77;;;;;;;;;;5116581;28;20452;-84
2023/09/11 07:48:35;;;;;;;27.70;24.87;;;;;;;;;;5099322;28;20460;-80
2023/09/11 07:51:02;;;;;;;27.90;25.40;;;;;;;;;;5106640;28;20480;-82
2023/09/11 07:53:30;;;;;;;28.43;25.70;;;;;;;;;;5119305;28;20451;-82
2023/09/11 07:55:57;;;;;;;28.50;25.90;;;;;;;;;;5119329;28;20443;-82
2023/09/11 07:58:24;;;;;;;29.40;26.63;;;;;;;;;;5118960;28;20414;-82
2023/09/11 08:00:51;;;;;;;27.57;24.97;;;;;;;;;;5098395;28;20527;-83
2023/09/11 08:03:19;;;;;;;26.33;23.67;;;;;;;;;;5101208;28;20480;-83
2023/09/11 08:05:47;;;;;;;27.27;24.50;;;;;;;;;;5101637;28;20452;-83
2023/09/11 08:08:14;;;;;;;29.17;26.17;;;;;;;;;;5107639;28;20486;-82
2023/09/11 08:10:41;;;;;;;27.73;25.23;;;;;;;;;;5102867;28;20978;-82
2023/09/11 08:13:08;;;;;;;26.47;24.27;;;;;;;;;;5103179;28;20455;-84
2023/09/11 08:15:35;;;;;;;27.60;25.13;;;;;;;;;;5100755;28;20456;-83
2023/09/11 08:18:02;;;;;;;26.23;24.03;;;;;;;;;;5120071;28;20442;-82
2023/09/11 08:20:29;;;;;;;27.77;24.80;;;;;;;;;;5120419;28;20475;-82
2023/09/11 08:22:58;;;;;;;27.87;25.13;;;;;;;;;;5118218;28;20477;-83
2023/09/11 08:25:25;;;;;;;27.47;24.80;;;;;;;;;;5101826;28;20929;-83
2023/09/11 08:27:53;;;;;;;29.13;26.60;;;;;;;;;;5100674;28;20461;-82
2023/09/11 08:30:20;;;;;;;26.10;23.70;;;;;;;;;;5100608;28;20487;-83
2023/09/11 08:32:47;;;;;;;26.63;24.17;;;;;;;;;;5108464;28;20436;-83
2023/09/11 08:35:14;;;;;;;24.83;22.83;;;;;;;;;;5121701;28;20452;-83
2023/09/11 08:37:42;;;;;;;28.50;25.50;;;;;;;;;;5121697;28;20842;-83
2023/09/11 08:40:10;;;;;;;25.90;23.80;;;;;;;;;;5121282;28;21117;-82
2023/09/11 08:42:38;;;;;;;26.30;23.70;;;;;;;;;;5120251;28;20847;-83
2023/09/11 08:45:05;;;;;;;25.40;23.30;;;;;;;;;;5120567;28;20448;-82
2023/09/11 08:47:33;;;;;;;26.17;23.67;;;;;;;;;;5119016;28;20935;-83
2023/09/11 08:50:06;;;;;;;27.90;25.27;;;;;;;;;;5121394;28;20501;-82
2023/09/11 08:52:35;;;;;;;28.13;24.60;;;;;;;;;;5120778;28;20420;-83
2023/09/11 08:55:03;;;;;;;27.30;24.03;;;;;;;;;;5120833;28;20475;-84
2023/09/11 08:57:33;;;;;;;26.23;24.23;;;;;;;;;;5120911;28;20442;-82
2023/09/11 09:00:04;;;;;;;26.43;23.93;;;;;;;;;;5122276;28;20502;-84
2023/09/11 09:02:33;;;;;;;26.90;24.70;;;;;;;;;;5121868;28;20464;-83
2023/09/11 09:05:03;;;;;;;26.47;24.27;;;;;;;;;;5117472;28;20501;-83
2023/09/11 09:07:30;;;;;;;28.60;26.03;;;;;;;;;;5117937;28;20448;-84
2023/09/11 09:09:59;;;;;;;27.73;25.03;;;;;;;;;;5121928;28;20456;-85
2023/09/11 09:12:26;;;;;;;28.33;26.03;;;;;;;;;;5119093;28;21018;-83
2023/09/11 09:14:55;;;;;;;26.03;24.03;;;;;;;;;;5121741;28;20448;-84
2023/09/11 09:17:22;;;;;;;31.17;25.37;;;;;;;;;;5119642;28;20510;-85
2023/09/11 09:19:49;;;;;;;28.37;25.73;;;;;;;;;;5117661;28;21011;-84
2023/09/11 09:22:17;;;;;;;28.30;25.37;;;;;;;;;;5121354;28;20444;-86
2023/09/11 09:24:51;;;;;;;28.77;26.63;;;;;;;;;;5120923;28;20447;-84
2023/09/11 09:27:19;;;;;;;27.50;25.07;;;;;;;;;;5121394;28;20447;-85
2023/09/11 09:29:48;;;;;;;27.07;24.93;;;;;;;;;;5112829;28;20488;-85
2023/09/11 09:32:17;;;;;;;28.00;25.80;;;;;;;;;;5102454;28;20449;-83
2023/09/11 09:34:49;;;;;;;27.93;25.73;;;;;;;;;;5101149;28;20467;-85
2023/09/11 09:37:17;;;;;;;30.10;27.30;;;;;;;;;;5100822;28;20460;-86
2023/09/11 09:39:44;;;;;;;28.03;25.90;;;;;;;;;;5100667;28;20452;-85
2023/09/11 09:42:12;;;;;;;29.27;27.10;;;;;;;;;;5101600;28;20454;-85
2023/09/11 09:44:39;;;;;;;27.67;25.27;;;;;;;;;;5101880;28;20843;-81
2023/09/11 09:47:07;;;;;;;27.87;25.47;;;;;;;;;;5107830;28;20442;-83
2023/09/11 09:49:43;;;;;;;29.77;26.87;;;;;;;;;;5117349;28;20447;-81
2023/09/11 09:52:10;;;;;;;28.20;26.00;;;;;;;;;;5116532;28;20430;-84
2023/09/11 09:54:41;;;;;;;29.30;26.60;;;;;;;;;;5123036;28;20452;-85
2023/09/11 09:57:10;;;;;;;27.77;25.43;;;;;;;;;;5105570;28;20404;-82
2023/09/11 09:59:37;;;;;;;27.57;25.07;;;;;;;;;;5103861;28;20499;-82
2023/09/11 10:02:05;;;;;;;41.93;28.30;;;;;;;;;;5107567;28;20945;-83
2023/09/11 10:04:32;;;;;;;28.47;26.17;;;;;;;;;;5100067;28;20942;-83
2023/09/11 10:07:01;;;;;;;27.90;25.10;;;;;;;;;;5098785;28;20882;-82
2023/09/11 10:09:28;;;;;;;28.10;25.20;;;;;;;;;;5099748;28;20484;-85
2023/09/11 10:11:55;;;;;;;28.27;25.67;;;;;;;;;;5097504;28;20457;-83
2023/09/11 10:14:22;;;;;;;27.37;25.27;;;;;;;;;;5100729;28;20439;-84
2023/09/11 10:16:50;;;;;;;29.77;26.57;;;;;;;;;;5099318;28;20494;-83
2023/09/11 10:19:17;;;;;;;29.10;26.43;;;;;;;;;;5099758;28;20451;-82
2023/09/11 10:21:44;;;;;;;28.47;26.03;;;;;;;;;;5100592;28;20423;-83
2023/09/11 10:24:13;;;;;;;28.17;25.70;;;;;;;;;;5100129;28;20483;-84
2023/09/11 10:26:45;;;;;;;28.07;25.83;;;;;;;;;;5099699;28;20452;-83
2023/09/11 10:29:13;;;;;;;28.17;25.67;;;;;;;;;;5100418;28;20471;-83
2023/09/11 10:31:43;;;;;;;29.60;26.97;;;;;;;;;;5100221;28;20445;-84
2023/09/11 10:34:12;;;;;;;27.50;25.30;;;;;;;;;;5100203;28;20444;-83
2023/09/11 10:36:40;;;;;;;27.83;25.40;;;;;;;;;;5098348;28;20480;-84
2023/09/11 10:39:09;;;;;;;28.97;26.50;;;;;;;;;;5099257;28;20469;-84
2023/09/11 10:41:38;;;;;;;28.83;26.47;;;;;;;;;;5109399;28;20453;-84
2023/09/11 10:44:06;;;;;;;28.70;26.50;;;;;;;;;;5098603;28;20484;-84
2023/09/11 10:46:34;;;;;;;29.10;26.50;;;;;;;;;;5098761;28;20444;-83
2023/09/11 10:49:01;;;;;;;27.60;25.40;;;;;;;;;;5103560;28;20530;-85
2023/09/11 10:51:28;;;;;;;28.43;26.10;;;;;;;;;;5116846;28;20440;-85
2023/09/11 10:53:56;;;;;;;29.27;26.47;;;;;;;;;;5109245;28;20487;-84
2023/09/11 10:56:23;;;;;;;28.70;26.10;;;;;;;;;;5107225;28;20429;-83
2023/09/11 10:58:53;;;;;;;30.20;27.40;;;;;;;;;;5098833;28;20487;-85
2023/09/11 11:01:20;;;;;;;29.07;26.57;;;;;;;;;;5112922;28;20424;-83
2023/09/11 11:03:47;;;;;;;29.60;27.20;;;;;;;;;;5099956;28;20476;-84
2023/09/11 11:06:18;;;;;;;29.90;27.50;;;;;;;;;;5098842;28;20441;-84
2023/09/11 11:08:48;;;;;;;29.03;26.43;;;;;;;;;;5099538;28;20498;-84
2023/09/11 11:11:22;;;;;;;28.87;26.47;;;;;;;;;;5099394;28;20425;-83
2023/09/11 11:14:08;;;;;;;29.00;26.60;;;;;;;;;;5099454;28;20441;-84
2023/09/11 11:16:37;;;;;;;29.27;26.60;;;;;;;;;;5099049;28;20460;-84
2023/09/11 11:19:05;;;;;;;30.07;27.20;;;;;;;;;;5099301;28;20468;-83
2023/09/11 11:21:39;;;;;;;30.57;28.07;;;;;;;;;;5099401;28;20396;-83
2023/09/11 11:24:06;;;;;;;28.47;26.50;;;;;;;;;;5099030;28;20507;-83
2023/09/11 11:26:37;;;;;;;28.60;26.37;;;;;;;;;;5098581;28;20472;-84
2023/09/11 11:29:05;;;;;;;33.43;27.53;;;;;;;;;;5111443;28;20514;-84
2023/09/11 11:31:33;;;;;;;27.47;25.43;;;;;;;;;;5119422;28;20504;-83
2023/09/11 11:34:01;;;;;;;28.80;26.80;;;;;;;;;;5119317;28;20500;-84
2023/09/11 11:36:29;;;;;;;27.73;25.73;;;;;;;;;;5118207;28;20637;-84
2023/09/11 11:38:59;;;;;;;29.87;27.07;;;;;;;;;;5118292;28;20559;-84
2023/09/11 11:41:26;;;;;;;28.93;26.60;;;;;;;;;;5118895;28;20456;-83
2023/09/11 11:43:53;;;;;;;30.03;27.07;;;;;;;;;;5118276;28;20487;-83
2023/09/11 11:46:25;;;;;;;28.57;26.37;;;;;;;;;;5118778;28;20432;-84
2023/09/11 11:48:52;;;;;;;27.93;25.73;;;;;;;;;;5119782;28;20475;-83
2023/09/11 11:51:29;;;;;;;29.50;26.70;;;;;;;;;;5112142;28;20453;-83
2023/09/11 11:53:56;;;;;;;28.00;25.90;;;;;;;;;;5099152;28;20957;-83
2023/09/11 11:56:23;;;;;;;29.23;26.63;;;;;;;;;;5098206;28;20468;-84
2023/09/11 11:58:50;;;;;;;27.83;25.80;;;;;;;;;;5097208;28;20857;-84
2023/09/11 12:01:17;;;;;;;29.50;27.20;;;;;;;;;;5098905;28;20444;-84
2023/09/11 12:03:48;;;;;;;29.17;26.70;;;;;;;;;;5098656;28;20495;-84
2023/09/11 12:06:15;;;;;;;29.43;27.00;;;;;;;;;;5098533;28;20819;-83
2023/09/11 12:08:45;;;;;;;29.10;26.40;;;;;;;;;;5098105;28;20436;-84
2023/09/11 12:11:12;;;;;;;29.73;27.40;;;;;;;;;;5099235;28;20459;-83
2023/09/11 12:13:40;;;;;;;29.43;26.97;;;;;;;;;;5097898;28;20467;-84
2023/09/11 12:16:07;;;;;;;29.43;26.90;;;;;;;;;;5100673;28;20547;-86
2023/09/11 12:18:37;;;;;;;29.10;26.63;;;;;;;;;;5098510;28;20440;-86
2023/09/11 12:21:05;;;;;;;29.73;26.90;;;;;;;;;;5099663;28;20437;-83
2023/09/11 12:23:32;;;;;;;29.63;27.27;;;;;;;;;;5099734;28;20445;-83
2023/09/11 12:26:01;;;;;;;28.90;26.40;;;;;;;;;;5097571;28;20452;-83
2023/09/11 12:28:28;;;;;;;28.63;26.30;;;;;;;;;;5096859;28;20470;-81
2023/09/11 12:30:55;;;;;;;28.60;26.20;;;;;;;;;;5097056;28;20436;-82
2023/09/11 12:33:23;;;;;;;30.27;27.17;;;;;;;;;;5097691;28;20490;-83
2023/09/11 12:35:52;;;;;;;28.30;25.57;;;;;;;;;;5097411;28;21215;-82
2023/09/11 12:38:20;;;;;;;28.60;25.97;;;;;;;;;;5097913;28;20479;-83
2023/09/11 12:40:48;;;;;;;27.67;25.03;;;;;;;;;;5099368;28;20473;-83
2023/09/11 12:43:17;;;;;;;29.30;26.80;;;;;;;;;;5097936;28;20472;-81
2023/09/11 12:45:44;;;;;;;27.97;25.37;;;;;;;;;;5096199;28;20496;-81
2023/09/11 12:48:11;;;;;;;28.73;26.20;;;;;;;;;;5098468;28;20445;-82
2023/09/11 12:50:40;;;;;;;27.37;25.27;;;;;;;;;;5097007;28;20976;-83
2023/09/11 12:53:07;;;;;;;28.93;26.30;;;;;;;;;;5098471;28;20453;-82
2023/09/11 12:55:34;;;;;;;28.13;25.77;;;;;;;;;;5102117;28;20451;-82
2023/09/11 12:58:02;;;;;;;27.10;25.07;;;;;;;;;;5101073;28;20453;-82
2023/09/11 13:00:31;;;;;;;30.63;27.37;;;;;;;;;;5103242;28;20565;-82
2023/09/11 13:02:58;;;;;;;29.13;26.37;;;;;;;;;;5116778;28;20460;-83
2023/09/11 13:05:26;;;;;;;29.03;26.10;;;;;;;;;;5118533;28;20975;-83
2023/09/11 13:07:53;;;;;;;28.67;26.50;;;;;;;;;;5123857;28;20530;-84
2023/09/11 13:10:21;;;;;;;28.10;25.70;;;;;;;;;;5123689;28;20471;-83
2023/09/11 13:12:48;;;;;;;28.17;25.97;;;;;;;;;;5123649;28;20461;-83
2023/09/11 13:15:15;;;;;;;28.77;25.97;;;;;;;;;;5123452;28;20935;-83
2023/09/11 13:17:44;;;;;;;28.60;26.17;;;;;;;;;;5122780;28;20776;-82
2023/09/11 13:20:11;;;;;;;29.63;27.23;;;;;;;;;;5123533;28;20470;-83
2023/09/11 13:22:38;;;;;;;29.47;27.13;;;;;;;;;;5122877;28;20446;-83
2023/09/11 13:25:06;;;;;;;28.80;26.50;;;;;;;;;;5122784;28;20479;-83
2023/09/11 13:27:33;;;;;;;29.00;26.90;;;;;;;;;;5123021;28;20841;-84
2023/09/11 13:30:01;;;;;;;28.77;26.40;;;;;;;;;;5123791;28;20471;-83
2023/09/11 13:32:28;;;;;;;28.47;26.33;;;;;;;;;;5122737;28;20472;-84
2023/09/11 13:34:56;;;;;;;28.50;26.00;;;;;;;;;;5122400;28;20448;-83
2023/09/11 13:37:23;;;;;;;27.97;25.87;;;;;;;;;;5122219;28;20466;-82
2023/09/11 13:39:51;;;;;;;29.50;27.50;;;;;;;;;;5122718;28;20463;-82
2023/09/11 13:42:23;;;;;;;27.73;25.70;;;;;;;;;;5122563;28;20451;-83
2023/09/11 13:44:51;;;;;;;28.50;26.20;;;;;;;;;;5122683;28;20468;-83
2023/09/11 13:47:18;;;;;;;30.50;27.90;;;;;;;;;;5122369;28;20450;-82
2023/09/11 13:49:45;;;;;;;30.17;28.27;;;;;;;;;;5120934;28;20459;-83
2023/09/11 13:52:14;;;;;;;29.50;27.20;;;;;;;;;;5122357;28;20463;-83
2023/09/11 13:54:44;;;;;;;29.60;27.07;;;;;;;;;;5121487;28;20450;-83
2023/09/11 13:57:11;;;;;;;28.40;26.30;;;;;;;;;;5119549;28;20521;-82
2023/09/11 13:59:38;;;;;;;27.83;25.73;;;;;;;;;;5118428;28;20979;-81
2023/09/11 14:02:05;;;;;;;28.10;26.10;;;;;;;;;;5118538;28;20455;-82
2023/09/11 14:04:32;;;;;;;28.80;26.77;;;;;;;;;;5118558;28;20455;-82
2023/09/11 14:06:59;;;;;;;28.70;26.20;;;;;;;;;;5117557;28;20436;-82
2023/09/11 14:09:28;;;;;;;29.20;26.90;;;;;;;;;;5118406;28;20484;-81
2023/09/11 14:11:55;;;;;;;29.27;26.87;;;;;;;;;;5118899;28;20443;-82
2023/09/11 14:14:22;;;;;;;28.47;26.43;;;;;;;;;;5117305;28;20448;-81
2023/09/11 14:16:49;;;;;;;29.27;26.80;;;;;;;;;;5118068;28;20452;-82
2023/09/11 14:19:16;;;;;;;29.80;27.40;;;;;;;;;;5118560;28;20880;-82